Time;durP1;ratioP1;P1;durP2;ratioP2;P2;SDS_P1;SDS_P2;PMS_P1;PMS_P2;Temp;Humidity;BMP_temperature;BMP_pressure;BME280_temperature;BME280_humidity;BME280_pressure;Samples;Min_cycle;Max_cycle;Signal;HPM_P1;HPM_P2
2022/04/14 00:00:46;;;;;;;11.80;10.10;;;;;;;;;;5068569;28;20432;-80
2022/04/14 00:03:13;;;;;;;11.95;10.63;;;;;;;;;;5068878;28;20436;-79
2022/04/14 00:05:41;;;;;;;13.00;9.83;;;;;;;;;;5068399;28;20494;-80
2022/04/14 00:08:07;;;;;;;12.45;10.25;;;;;;;;;;5083990;28;20448;-80
2022/04/14 00:10:34;;;;;;;11.90;9.43;;;;;;;;;;5088681;28;20416;-79
2022/04/14 00:13:00;;;;;;;12.07;9.60;;;;;;;;;;5089058;28;20512;-79
2022/04/14 00:15:27;;;;;;;12.07;10.60;;;;;;;;;;5087809;28;20925;-80
2022/04/14 00:17:54;;;;;;;13.68;10.40;;;;;;;;;;5085523;28;20460;-79
2022/04/14 00:20:20;;;;;;;8.93;8.02;;;;;;;;;;5088487;28;20416;-79
2022/04/14 00:22:47;;;;;;;12.60;9.10;;;;;;;;;;5088708;28;20435;-80
2022/04/14 00:25:14;;;;;;;13.82;10.00;;;;;;;;;;5087726;28;20408;-80
2022/04/14 00:27:40;;;;;;;10.37;9.20;;;;;;;;;;5087612;28;20481;-79
2022/04/14 00:30:07;;;;;;;12.68;9.10;;;;;;;;;;5086969;28;20439;-79
2022/04/14 00:32:33;;;;;;;9.43;8.40;;;;;;;;;;5088767;28;20496;-79
2022/04/14 00:34:59;;;;;;;9.57;8.30;;;;;;;;;;5088886;28;20415;-79
2022/04/14 00:37:26;;;;;;;10.40;8.50;;;;;;;;;;5090537;28;20433;-79
2022/04/14 00:39:53;;;;;;;11.07;9.30;;;;;;;;;;5087485;28;20467;-80
2022/04/14 00:42:19;;;;;;;10.43;8.88;;;;;;;;;;5087607;28;20431;-79
2022/04/14 00:44:46;;;;;;;11.57;10.37;;;;;;;;;;5087209;28;20444;-80
2022/04/14 00:47:13;;;;;;;11.32;9.82;;;;;;;;;;5092033;28;20804;-79
2022/04/14 00:49:40;;;;;;;10.88;9.77;;;;;;;;;;5086703;28;20963;-78
2022/04/14 00:52:07;;;;;;;12.25;10.48;;;;;;;;;;5090790;28;20426;-80
2022/04/14 00:54:34;;;;;;;12.20;9.88;;;;;;;;;;5089944;28;20977;-79
2022/04/14 00:57:02;;;;;;;12.63;9.82;;;;;;;;;;5087546;28;20435;-80
2022/04/14 00:59:29;;;;;;;9.77;8.77;;;;;;;;;;5085137;28;20455;-80
2022/04/14 01:01:55;;;;;;;11.00;8.98;;;;;;;;;;5086968;28;20662;-80
2022/04/14 01:04:21;;;;;;;10.37;8.97;;;;;;;;;;5088223;28;20926;-80
2022/04/14 01:06:48;;;;;;;11.80;9.23;;;;;;;;;;5088683;28;20433;-80
2022/04/14 01:09:19;;;;;;;10.70;9.60;;;;;;;;;;5089538;28;20436;-79
2022/04/14 01:11:45;;;;;;;12.18;8.98;;;;;;;;;;5087616;28;20417;-79
2022/04/14 01:14:20;;;;;;;10.60;8.95;;;;;;;;;;5086849;28;20484;-79
2022/04/14 01:16:46;;;;;;;12.88;9.43;;;;;;;;;;5085661;28;20463;-79
2022/04/14 01:19:12;;;;;;;10.63;9.53;;;;;;;;;;5088843;28;20485;-79
2022/04/14 01:21:41;;;;;;;10.60;9.30;;;;;;;;;;5086948;28;20425;-79
2022/04/14 01:24:09;;;;;;;10.13;9.13;;;;;;;;;;5089872;28;20414;-79
2022/04/14 01:26:37;;;;;;;12.25;9.35;;;;;;;;;;5088230;28;20498;-79
2022/04/14 01:29:03;;;;;;;10.68;9.57;;;;;;;;;;5086400;28;20427;-80
2022/04/14 01:31:29;;;;;;;15.88;10.73;;;;;;;;;;5087934;28;20476;-79
2022/04/14 01:33:56;;;;;;;11.87;9.33;;;;;;;;;;5087994;28;20430;-79
2022/04/14 01:36:22;;;;;;;13.73;10.40;;;;;;;;;;5088609;28;20445;-79
2022/04/14 01:38:48;;;;;;;13.77;10.30;;;;;;;;;;5087371;28;20431;-78
2022/04/14 01:41:16;;;;;;;13.13;10.15;;;;;;;;;;5086860;28;20417;-79
2022/04/14 01:43:43;;;;;;;12.50;9.57;;;;;;;;;;5088303;28;20495;-79
2022/04/14 01:46:09;;;;;;;11.10;9.90;;;;;;;;;;5088720;28;20427;-79
2022/04/14 01:48:38;;;;;;;13.88;11.40;;;;;;;;;;5089104;28;20437;-80
2022/04/14 01:51:04;;;;;;;17.13;11.20;;;;;;;;;;5087467;28;20517;-80
2022/04/14 01:53:30;;;;;;;13.77;11.40;;;;;;;;;;5087603;28;20507;-78
2022/04/14 01:55:56;;;;;;;12.48;10.80;;;;;;;;;;5087846;28;20830;-80
2022/04/14 01:58:24;;;;;;;16.85;11.10;;;;;;;;;;5088853;28;20639;-79
2022/04/14 02:00:50;;;;;;;14.87;11.20;;;;;;;;;;5086660;28;20934;-80
2022/04/14 02:03:16;;;;;;;14.80;10.90;;;;;;;;;;5089231;28;20487;-80
2022/04/14 02:05:43;;;;;;;14.90;11.25;;;;;;;;;;5090024;28;20423;-81
2022/04/14 02:08:09;;;;;;;12.63;10.13;;;;;;;;;;5089803;28;20485;-78
2022/04/14 02:10:36;;;;;;;15.18;11.30;;;;;;;;;;5088053;28;20417;-79
2022/04/14 02:13:02;;;;;;;14.65;10.68;;;;;;;;;;5088140;28;20854;-79
2022/04/14 02:15:30;;;;;;;16.85;10.50;;;;;;;;;;5088256;28;20408;-79
2022/04/14 02:17:57;;;;;;;14.80;11.40;;;;;;;;;;5088726;28;20600;-80
2022/04/14 02:20:24;;;;;;;16.60;10.85;;;;;;;;;;5087501;28;20414;-80
2022/04/14 02:22:50;;;;;;;16.83;11.00;;;;;;;;;;5088513;28;20452;-79
2022/04/14 02:25:16;;;;;;;14.90;10.80;;;;;;;;;;5088170;28;20762;-80
2022/04/14 02:27:43;;;;;;;15.23;11.90;;;;;;;;;;5086367;28;20859;-80
2022/04/14 02:30:09;;;;;;;17.10;11.82;;;;;;;;;;5086971;28;20502;-79
2022/04/14 02:32:37;;;;;;;17.75;12.63;;;;;;;;;;5088842;28;20690;-80
2022/04/14 02:35:04;;;;;;;14.05;11.30;;;;;;;;;;5085836;28;20829;-79
2022/04/14 02:37:30;;;;;;;16.13;12.10;;;;;;;;;;5088548;28;20437;-79
2022/04/14 02:39:56;;;;;;;13.73;12.10;;;;;;;;;;5084855;28;20413;-80
2022/04/14 02:42:23;;;;;;;14.55;11.27;;;;;;;;;;5088234;28;20422;-80
2022/04/14 02:44:49;;;;;;;18.20;10.82;;;;;;;;;;5088066;28;20445;-80
2022/04/14 02:47:15;;;;;;;14.93;10.40;;;;;;;;;;5088189;28;20426;-80
2022/04/14 02:49:43;;;;;;;15.20;11.63;;;;;;;;;;5084031;28;20903;-80
2022/04/14 02:52:09;;;;;;;16.73;10.80;;;;;;;;;;5085947;28;20434;-79
2022/04/14 02:54:37;;;;;;;18.20;12.20;;;;;;;;;;5085667;28;20417;-79
2022/04/14 02:57:04;;;;;;;18.67;12.27;;;;;;;;;;5070012;28;20431;-79
2022/04/14 02:59:30;;;;;;;13.43;10.43;;;;;;;;;;5066629;28;20436;-80
2022/04/14 03:01:56;;;;;;;15.43;11.65;;;;;;;;;;5066516;28;20425;-79
2022/04/14 03:04:22;;;;;;;13.10;10.98;;;;;;;;;;5064572;28;20423;-79
2022/04/14 03:06:50;;;;;;;14.80;11.10;;;;;;;;;;5065534;28;20425;-79
2022/04/14 03:09:16;;;;;;;16.67;12.10;;;;;;;;;;5065874;28;20481;-80
2022/04/14 03:11:42;;;;;;;19.40;12.98;;;;;;;;;;5067152;28;20433;-80
2022/04/14 03:14:09;;;;;;;15.80;12.50;;;;;;;;;;5065776;28;20932;-79
2022/04/14 03:16:35;;;;;;;17.05;11.93;;;;;;;;;;5067540;28;20429;-80
2022/04/14 03:19:01;;;;;;;17.63;12.30;;;;;;;;;;5066936;28;20857;-79
2022/04/14 03:21:27;;;;;;;15.48;11.68;;;;;;;;;;5068064;28;20423;-79
2022/04/14 03:23:55;;;;;;;18.77;12.90;;;;;;;;;;5068576;28;20463;-79
2022/04/14 03:26:21;;;;;;;24.30;14.55;;;;;;;;;;5065378;28;20417;-79
2022/04/14 03:28:47;;;;;;;19.73;14.73;;;;;;;;;;5065881;28;20421;-79
2022/04/14 03:31:13;;;;;;;17.83;14.80;;;;;;;;;;5063034;28;20458;-79
2022/04/14 03:33:40;;;;;;;20.50;13.55;;;;;;;;;;5066476;28;20756;-79
2022/04/14 03:36:06;;;;;;;16.57;13.60;;;;;;;;;;5067299;28;20427;-80
2022/04/14 03:38:33;;;;;;;21.55;13.70;;;;;;;;;;5070140;28;20810;-80
2022/04/14 03:41:02;;;;;;;20.80;14.30;;;;;;;;;;5081147;28;20421;-79
2022/04/14 03:43:29;;;;;;;17.13;13.53;;;;;;;;;;5089907;28;20463;-80
2022/04/14 03:45:55;;;;;;;21.70;14.80;;;;;;;;;;5076027;28;20426;-80
2022/04/14 03:48:21;;;;;;;20.20;13.30;;;;;;;;;;5071029;28;20421;-80
2022/04/14 03:50:47;;;;;;;17.57;12.80;;;;;;;;;;5070569;28;20409;-79
2022/04/14 03:53:14;;;;;;;19.02;12.48;;;;;;;;;;5069434;28;20432;-79
2022/04/14 03:55:40;;;;;;;17.00;12.38;;;;;;;;;;5072164;28;20496;-79
2022/04/14 03:58:07;;;;;;;17.30;12.70;;;;;;;;;;5070010;28;20531;-79
2022/04/14 04:00:34;;;;;;;15.32;12.27;;;;;;;;;;5069678;28;20424;-78
2022/04/14 04:03:00;;;;;;;16.80;12.45;;;;;;;;;;5069773;28;20473;-78
2022/04/14 04:05:26;;;;;;;15.38;11.70;;;;;;;;;;5072059;28;20429;-80
2022/04/14 04:07:52;;;;;;;15.77;11.90;;;;;;;;;;5068879;28;20783;-80
2022/04/14 04:10:19;;;;;;;13.50;10.95;;;;;;;;;;5071273;28;20411;-80
2022/04/14 04:12:45;;;;;;;16.15;12.63;;;;;;;;;;5072151;28;20793;-77
2022/04/14 04:15:12;;;;;;;17.27;13.50;;;;;;;;;;5070548;28;20437;-79
2022/04/14 04:17:39;;;;;;;16.77;12.20;;;;;;;;;;5077139;28;20445;-77
2022/04/14 04:20:06;;;;;;;14.68;12.32;;;;;;;;;;5091420;28;20438;-79
2022/04/14 04:22:33;;;;;;;18.88;14.25;;;;;;;;;;5091328;28;20422;-80
2022/04/14 04:24:59;;;;;;;17.20;13.10;;;;;;;;;;5092247;28;20503;-79
2022/04/14 04:27:25;;;;;;;17.65;13.48;;;;;;;;;;5089770;28;21080;-80
2022/04/14 04:29:52;;;;;;;14.70;12.18;;;;;;;;;;5088255;28;20473;-80
2022/04/14 04:32:19;;;;;;;17.77;13.40;;;;;;;;;;5090689;28;20477;-80
2022/04/14 04:34:45;;;;;;;16.42;12.30;;;;;;;;;;5089602;28;20457;-80
2022/04/14 04:37:12;;;;;;;14.35;11.48;;;;;;;;;;5089624;28;20489;-80
2022/04/14 04:39:38;;;;;;;16.17;12.60;;;;;;;;;;5087523;28;20432;-81
2022/04/14 04:42:04;;;;;;;16.13;12.00;;;;;;;;;;5083468;28;20418;-80
2022/04/14 04:44:31;;;;;;;16.30;11.35;;;;;;;;;;5085813;28;20498;-80
2022/04/14 04:46:57;;;;;;;15.63;11.38;;;;;;;;;;5086854;28;20423;-80
2022/04/14 04:49:24;;;;;;;16.33;11.25;;;;;;;;;;5083157;28;20431;-80
2022/04/14 04:51:51;;;;;;;16.85;12.50;;;;;;;;;;5082379;28;20412;-80
2022/04/14 04:54:17;;;;;;;14.97;12.00;;;;;;;;;;5085112;28;20869;-79
2022/04/14 04:56:43;;;;;;;15.90;12.10;;;;;;;;;;5084562;28;20692;-80
2022/04/14 04:59:09;;;;;;;15.73;11.80;;;;;;;;;;5084136;28;20496;-79
2022/04/14 05:01:36;;;;;;;15.60;11.57;;;;;;;;;;5084324;28;20560;-80
2022/04/14 05:04:02;;;;;;;17.05;11.30;;;;;;;;;;5084777;28;20861;-80
2022/04/14 05:06:29;;;;;;;17.95;13.20;;;;;;;;;;5085628;28;20788;-79
2022/04/14 05:08:56;;;;;;;21.25;15.25;;;;;;;;;;5088273;28;20405;-78
2022/04/14 05:11:22;;;;;;;23.15;16.67;;;;;;;;;;5085743;28;20427;-79
2022/04/14 05:13:48;;;;;;;22.10;16.20;;;;;;;;;;5086949;28;20424;-77
2022/04/14 05:16:14;;;;;;;24.00;18.27;;;;;;;;;;5087512;28;20635;-79
2022/04/14 05:18:40;;;;;;;30.00;18.88;;;;;;;;;;5085362;28;20434;-79
2022/04/14 05:21:07;;;;;;;25.02;17.52;;;;;;;;;;5084916;28;20622;-78
2022/04/14 05:23:34;;;;;;;28.80;19.73;;;;;;;;;;5082918;28;20426;-79
2022/04/14 05:26:01;;;;;;;27.87;19.33;;;;;;;;;;5084678;28;20486;-78
2022/04/14 05:28:27;;;;;;;25.15;18.02;;;;;;;;;;5085707;28;20423;-78
2022/04/14 05:30:53;;;;;;;26.27;19.55;;;;;;;;;;5086681;28;20427;-79
2022/04/14 05:33:19;;;;;;;29.60;20.20;;;;;;;;;;5083374;28;20561;-78
2022/04/14 05:35:46;;;;;;;27.52;20.45;;;;;;;;;;5084245;28;20428;-79
2022/04/14 05:38:12;;;;;;;28.05;20.70;;;;;;;;;;5081441;28;20413;-78
2022/04/14 05:40:41;;;;;;;31.25;21.17;;;;;;;;;;5087388;28;20431;-79
2022/04/14 05:43:07;;;;;;;31.05;22.55;;;;;;;;;;5087158;28;20465;-79
2022/04/14 05:45:34;;;;;;;34.78;23.80;;;;;;;;;;5087209;28;20903;-79
2022/04/14 05:48:00;;;;;;;33.72;23.38;;;;;;;;;;5086237;28;20788;-77
2022/04/14 05:50:27;;;;;;;33.80;23.00;;;;;;;;;;5087260;28;20471;-78
2022/04/14 05:52:55;;;;;;;37.08;23.13;;;;;;;;;;5085584;28;20499;-79
2022/04/14 05:55:21;;;;;;;30.48;22.27;;;;;;;;;;5087854;28;20411;-79
2022/04/14 05:57:49;;;;;;;36.35;25.15;;;;;;;;;;5100323;22;20440;-83
2022/04/14 06:00:15;;;;;;;34.88;23.58;;;;;;;;;;5037335;28;20427;-83
2022/04/14 06:02:42;;;;;;;39.00;23.73;;;;;;;;;;5037906;28;20428;-83
2022/04/14 06:05:09;;;;;;;36.10;23.30;;;;;;;;;;5039214;28;20423;-82
2022/04/14 06:07:35;;;;;;;31.10;23.77;;;;;;;;;;5039284;28;20416;-83
2022/04/14 06:10:01;;;;;;;34.42;23.98;;;;;;;;;;5059139;28;20412;-83
2022/04/14 06:12:28;;;;;;;36.78;26.30;;;;;;;;;;5056137;28;20485;-84
2022/04/14 06:14:55;;;;;;;37.80;24.87;;;;;;;;;;5057887;28;20443;-84
2022/04/14 06:17:21;;;;;;;32.45;25.17;;;;;;;;;;5061300;28;20416;-83
2022/04/14 06:19:48;;;;;;;37.17;25.27;;;;;;;;;;5059297;28;20475;-85
2022/04/14 06:22:14;;;;;;;35.50;26.05;;;;;;;;;;5061092;28;20422;-84
2022/04/14 06:24:40;;;;;;;35.95;26.35;;;;;;;;;;5062348;28;20760;-83
2022/04/14 06:27:06;;;;;;;34.78;26.35;;;;;;;;;;5061326;28;20461;-84
2022/04/14 06:29:33;;;;;;;35.50;26.13;;;;;;;;;;5059259;28;20425;-83
2022/04/14 06:32:00;;;;;;;34.67;27.00;;;;;;;;;;5058248;28;20472;-84
2022/04/14 06:34:27;;;;;;;34.50;25.40;;;;;;;;;;5060573;28;20862;-85
2022/04/14 06:36:53;;;;;;;35.95;26.58;;;;;;;;;;5059226;28;20411;-83
2022/04/14 06:39:19;;;;;;;37.55;27.70;;;;;;;;;;5059674;28;20424;-85
2022/04/14 06:41:45;;;;;;;34.83;25.20;;;;;;;;;;5058602;28;20421;-84
2022/04/14 06:44:11;;;;;;;38.85;25.95;;;;;;;;;;5059526;28;20433;-83
2022/04/14 06:46:38;;;;;;;38.42;28.23;;;;;;;;;;5059660;28;20409;-85
2022/04/14 06:49:06;;;;;;;35.65;25.80;;;;;;;;;;5058666;28;20480;-85
2022/04/14 06:51:32;;;;;;;36.50;27.42;;;;;;;;;;5058158;28;20413;-83
2022/04/14 06:53:59;;;;;;;38.17;27.10;;;;;;;;;;5057869;28;20577;-84
2022/04/14 06:56:25;;;;;;;37.30;27.30;;;;;;;;;;5062005;28;20770;-87
2022/04/14 06:58:51;;;;;;;38.72;26.90;;;;;;;;;;5058947;28;20971;-86
2022/04/14 07:01:17;;;;;;;35.08;27.42;;;;;;;;;;5059527;28;20429;-85
2022/04/14 07:03:44;;;;;;;33.53;24.95;;;;;;;;;;5060091;28;20421;-83
2022/04/14 07:06:12;;;;;;;38.60;27.73;;;;;;;;;;5057940;28;20502;-84
2022/04/14 07:08:38;;;;;;;37.05;27.20;;;;;;;;;;5038790;28;20422;-83
2022/04/14 07:11:04;;;;;;;42.70;29.57;;;;;;;;;;5040900;28;20421;-83
2022/04/14 07:13:31;;;;;;;39.55;28.85;;;;;;;;;;5041736;28;20425;-83
2022/04/14 07:15:57;;;;;;;42.37;30.33;;;;;;;;;;5043095;28;20434;-85
2022/04/14 07:18:24;;;;;;;41.92;30.10;;;;;;;;;;5061357;28;20422;-86
2022/04/14 07:20:50;;;;;;;39.25;29.90;;;;;;;;;;5064546;28;20438;-83
2022/04/14 07:23:18;;;;;;;39.53;29.50;;;;;;;;;;5062880;28;20417;-83
2022/04/14 07:25:44;;;;;;;41.63;29.67;;;;;;;;;;5063600;28;20407;-86
2022/04/14 07:28:11;;;;;;;42.20;30.08;;;;;;;;;;5062103;28;20417;-85
2022/04/14 07:30:39;;;;;;;38.40;29.15;;;;;;;;;;5062551;28;20427;-83
2022/04/14 07:33:06;;;;;;;42.47;30.67;;;;;;;;;;5062821;28;20793;-84
2022/04/14 07:35:32;;;;;;;42.50;29.83;;;;;;;;;;5062540;28;20481;-85
2022/04/14 07:37:59;;;;;;;43.03;29.80;;;;;;;;;;5062932;28;20416;-85
2022/04/14 07:40:27;;;;;;;43.22;29.65;;;;;;;;;;5062929;28;20431;-85
2022/04/14 07:42:55;;;;;;;45.00;30.40;;;;;;;;;;5061183;28;20494;-82
2022/04/14 07:45:22;;;;;;;40.20;31.00;;;;;;;;;;5063075;28;20480;-84
2022/04/14 07:47:48;;;;;;;42.60;30.52;;;;;;;;;;5064217;28;20465;-83
2022/04/14 07:50:15;;;;;;;40.05;30.83;;;;;;;;;;5063633;28;20484;-82
2022/04/14 07:52:45;;;;;;;44.33;31.30;;;;;;;;;;5063047;28;20456;-86
2022/04/14 07:55:11;;;;;;;41.05;31.17;;;;;;;;;;5062698;28;20412;-85
2022/04/14 07:57:39;;;;;;;45.20;31.10;;;;;;;;;;5062806;28;20420;-86
2022/04/14 08:00:05;;;;;;;45.45;31.90;;;;;;;;;;5061223;28;20429;-85
2022/04/14 08:02:32;;;;;;;48.08;34.53;;;;;;;;;;5062047;28;20465;-85
2022/04/14 08:04:58;;;;;;;42.35;30.45;;;;;;;;;;5061798;28;20406;-87
2022/04/14 08:07:24;;;;;;;42.90;32.03;;;;;;;;;;5062642;28;20413;-86
2022/04/14 08:09:50;;;;;;;40.40;31.90;;;;;;;;;;5061728;28;20819;-84
2022/04/14 08:12:17;;;;;;;41.63;31.10;;;;;;;;;;5061480;28;20417;-83
2022/04/14 08:14:44;;;;;;;40.15;31.15;;;;;;;;;;5062091;28;20928;-86
2022/04/14 08:17:10;;;;;;;41.22;30.17;;;;;;;;;;5061823;28;20463;-86
2022/04/14 08:19:40;;;;;;;36.42;28.05;;;;;;;;;;5061577;28;20427;-87
2022/04/14 08:22:06;;;;;;;37.45;28.20;;;;;;;;;;5060003;28;20483;-86
2022/04/14 08:24:33;;;;;;;36.83;28.48;;;;;;;;;;5060499;28;20448;-86
2022/04/14 08:26:59;;;;;;;33.50;27.45;;;;;;;;;;5059799;28;20418;-85
2022/04/14 08:29:25;;;;;;;36.77;28.20;;;;;;;;;;5062734;28;20421;-87
2022/04/14 08:31:53;;;;;;;38.08;27.50;;;;;;;;;;5060857;28;20474;-84
2022/04/14 08:34:19;;;;;;;37.60;28.52;;;;;;;;;;5059123;28;20988;-86
2022/04/14 08:36:45;;;;;;;34.47;26.50;;;;;;;;;;5061230;28;20447;-85
2022/04/14 08:39:12;;;;;;;38.47;27.83;;;;;;;;;;5062912;28;20745;-86
2022/04/14 08:41:40;;;;;;;34.35;25.88;;;;;;;;;;5060882;28;20537;-85
2022/04/14 08:44:09;;;;;;;33.22;25.65;;;;;;;;;;5062047;28;20429;-84
2022/04/14 08:46:36;;;;;;;34.08;26.25;;;;;;;;;;5059261;28;20408;-85
2022/04/14 08:49:04;;;;;;;35.10;27.00;;;;;;;;;;5062031;28;21425;-85
2022/04/14 08:51:33;;;;;;;33.78;26.08;;;;;;;;;;5063126;28;20412;-87
2022/04/14 08:53:59;;;;;;;31.40;24.03;;;;;;;;;;5062942;28;20421;-85
2022/04/14 08:56:26;;;;;;;28.38;21.63;;;;;;;;;;5059898;28;20486;-87
2022/04/14 08:58:53;;;;;;;30.05;21.45;;;;;;;;;;5059955;28;20987;-85
2022/04/14 09:01:20;;;;;;;29.63;23.30;;;;;;;;;;5059991;28;20879;-86
2022/04/14 09:03:46;;;;;;;27.50;22.20;;;;;;;;;;5061891;28;20465;-85
2022/04/14 09:06:14;;;;;;;31.15;23.08;;;;;;;;;;5060805;28;20412;-86
2022/04/14 09:08:40;;;;;;;26.23;20.58;;;;;;;;;;5060503;28;20539;-86
2022/04/14 09:11:08;;;;;;;24.65;18.05;;;;;;;;;;5062188;28;20414;-86
2022/04/14 09:13:37;;;;;;;24.50;17.10;;;;;;;;;;5061872;28;20506;-86
2022/04/14 09:16:03;;;;;;;23.38;18.67;;;;;;;;;;5061877;28;20406;-86
2022/04/14 09:18:30;;;;;;;22.23;17.60;;;;;;;;;;5061944;28;20421;-86
2022/04/14 09:21:02;;;;;;;20.42;17.05;;;;;;;;;;5059358;28;20435;-87
2022/04/14 09:23:31;;;;;;;20.48;16.40;;;;;;;;;;5061114;28;20466;-87
2022/04/14 09:26:09;;;;;;;21.30;16.75;;;;;;;;;;5061242;28;20491;-85
2022/04/14 09:28:35;;;;;;;21.15;18.13;;;;;;;;;;5058146;28;20419;-86
2022/04/14 09:31:03;;;;;;;22.80;18.17;;;;;;;;;;5060040;28;20403;-85
2022/04/14 09:33:30;;;;;;;21.52;18.83;;;;;;;;;;5060122;28;20417;-85
2022/04/14 09:36:07;;;;;;;22.85;18.35;;;;;;;;;;5059928;28;20422;-86
2022/04/14 09:41:29;;;;;;;21.13;16.75;;;;;;;;;;5093124;27;20344;-84
2022/04/14 09:43:56;;;;;;;21.58;17.05;;;;;;;;;;5056023;28;20509;-83
2022/04/14 09:46:22;;;;;;;18.53;16.03;;;;;;;;;;5054553;28;20433;-84
2022/04/14 09:49:06;;;;;;;19.42;15.90;;;;;;;;;;5036175;28;20426;-85
2022/04/14 09:51:35;;;;;;;19.70;15.95;;;;;;;;;;5033029;28;20421;-85
2022/04/14 09:54:12;;;;;;;23.02;15.73;;;;;;;;;;5036531;28;20924;-84
2022/04/14 09:56:51;;;;;;;19.45;16.50;;;;;;;;;;5030712;28;20458;-82
2022/04/14 09:59:18;;;;;;;19.02;16.25;;;;;;;;;;5031986;28;20434;-84
2022/04/14 10:01:45;;;;;;;19.15;15.55;;;;;;;;;;5030696;28;20430;-84
2022/04/14 10:04:28;;;;;;;17.77;14.85;;;;;;;;;;5030544;28;20424;-84
2022/04/14 10:07:01;;;;;;;18.15;14.98;;;;;;;;;;5032712;28;20920;-86
2022/04/14 10:09:28;;;;;;;18.13;15.50;;;;;;;;;;5030422;28;20421;-85
2022/04/14 10:11:56;;;;;;;19.10;15.23;;;;;;;;;;5035506;28;20426;-84
2022/04/14 10:14:25;;;;;;;15.93;14.32;;;;;;;;;;5032890;28;20428;-83
2022/04/14 10:16:51;;;;;;;17.42;14.35;;;;;;;;;;5030609;28;20800;-84
2022/04/14 10:19:18;;;;;;;17.45;14.68;;;;;;;;;;5031546;28;20423;-85
2022/04/14 10:21:45;;;;;;;14.65;12.70;;;;;;;;;;5034364;28;20420;-81
2022/04/14 10:24:12;;;;;;;16.65;13.48;;;;;;;;;;5030065;28;20741;-85
2022/04/14 10:26:38;;;;;;;14.40;12.90;;;;;;;;;;5029761;28;20930;-84
2022/04/14 10:29:07;;;;;;;13.77;12.27;;;;;;;;;;5032106;28;20433;-82
2022/04/14 10:31:34;;;;;;;15.70;12.63;;;;;;;;;;5031214;28;20440;-83
2022/04/14 10:34:04;;;;;;;14.98;13.57;;;;;;;;;;5034891;28;20424;-83
2022/04/14 10:36:30;;;;;;;16.33;12.70;;;;;;;;;;5033342;28;20436;-84
2022/04/14 10:38:58;;;;;;;14.95;12.95;;;;;;;;;;5036583;28;20911;-86
2022/04/14 10:41:27;;;;;;;15.67;13.10;;;;;;;;;;5033014;28;20432;-84
2022/04/14 10:43:54;;;;;;;14.73;13.00;;;;;;;;;;5031721;28;20935;-84
2022/04/14 10:46:31;;;;;;;15.75;13.05;;;;;;;;;;5036838;28;20513;-86
2022/04/14 10:49:10;;;;;;;15.23;13.32;;;;;;;;;;5034343;28;20825;-85
2022/04/14 10:51:37;;;;;;;17.63;13.70;;;;;;;;;;5026977;28;20413;-83
2022/04/14 10:54:05;;;;;;;16.60;14.90;;;;;;;;;;5022667;28;20482;-85
2022/04/14 10:56:43;;;;;;;15.90;13.80;;;;;;;;;;5018892;28;20506;-82
2022/04/14 10:59:11;;;;;;;16.35;14.65;;;;;;;;;;5021171;28;20464;-87
2022/04/14 11:02:02;;;;;;;17.02;14.35;;;;;;;;;;5016094;28;20553;-84
2022/04/14 11:04:30;;;;;;;18.80;13.65;;;;;;;;;;5025750;28;20526;-85
2022/04/14 11:06:59;;;;;;;17.00;14.40;;;;;;;;;;5020035;28;20464;-85
2022/04/14 11:09:44;;;;;;;16.08;13.65;;;;;;;;;;5019889;28;20451;-86
2022/04/14 11:12:11;;;;;;;15.50;13.70;;;;;;;;;;5016554;28;20908;-86
2022/04/14 11:14:38;;;;;;;15.73;14.13;;;;;;;;;;5018359;28;20420;-84
2022/04/14 11:17:06;;;;;;;11.50;10.30;;;;;;;;;;5016058;28;20437;-85
2022/04/14 11:19:32;;;;;;;12.73;11.33;;;;;;;;;;5010650;28;20428;-84
2022/04/14 11:22:08;;;;;;;12.60;11.30;;;;;;;;;;5018299;28;20422;-83
2022/04/14 11:24:44;;;;;;;13.10;11.40;;;;;;;;;;5017812;28;20524;-85
2022/04/14 11:27:14;;;;;;;11.68;10.48;;;;;;;;;;5017514;28;20511;-85
2022/04/14 11:29:41;;;;;;;11.13;9.93;;;;;;;;;;5020755;28;20411;-86
2022/04/14 11:32:08;;;;;;;11.63;9.70;;;;;;;;;;5015616;28;20426;-85
2022/04/14 11:34:35;;;;;;;11.68;10.52;;;;;;;;;;5017493;28;20407;-87
2022/04/14 11:37:02;;;;;;;12.65;11.20;;;;;;;;;;5018975;28;20418;-86
2022/04/14 11:39:29;;;;;;;13.10;11.27;;;;;;;;;;5023708;28;20905;-86
2022/04/14 11:41:58;;;;;;;12.55;10.35;;;;;;;;;;5037106;28;21092;-86
2022/04/14 11:44:27;;;;;;;13.63;11.15;;;;;;;;;;5038658;28;20431;-87
2022/04/14 11:46:58;;;;;;;12.02;10.38;;;;;;;;;;5038886;28;20438;-88
2022/04/14 11:49:26;;;;;;;12.00;10.80;;;;;;;;;;5042254;28;20422;-86
2022/04/14 11:51:53;;;;;;;11.70;9.95;;;;;;;;;;5038730;28;20415;-85
2022/04/14 11:54:20;;;;;;;10.70;9.60;;;;;;;;;;5036642;28;20435;-85
2022/04/14 11:56:50;;;;;;;12.13;9.95;;;;;;;;;;5038593;28;20482;-85
2022/04/14 11:59:18;;;;;;;11.45;10.25;;;;;;;;;;5047163;22;20451;-79
2022/04/14 12:01:49;;;;;;;11.05;8.75;;;;;;;;;;5023775;28;20413;-77
2022/04/14 12:04:15;;;;;;;10.38;8.00;;;;;;;;;;5021665;28;20452;-79
2022/04/14 12:06:51;;;;;;;9.00;8.10;;;;;;;;;;5024992;28;20469;-79
2022/04/14 12:09:18;;;;;;;10.50;8.88;;;;;;;;;;5022568;28;20433;-79
2022/04/14 12:11:45;;;;;;;8.00;7.22;;;;;;;;;;5025498;28;20421;-80
2022/04/14 12:14:11;;;;;;;7.63;6.82;;;;;;;;;;5022205;28;20432;-81
2022/04/14 12:16:37;;;;;;;7.00;6.30;;;;;;;;;;5023895;28;20419;-80
2022/04/14 12:19:05;;;;;;;6.70;6.00;;;;;;;;;;5023349;28;20484;-79
2022/04/14 12:21:31;;;;;;;8.32;7.38;;;;;;;;;;5022578;28;20750;-80
2022/04/14 12:23:59;;;;;;;7.15;5.70;;;;;;;;;;5022194;28;20440;-79
2022/04/14 12:26:27;;;;;;;7.70;7.00;;;;;;;;;;5024765;28;20812;-80
2022/04/14 12:28:54;;;;;;;7.47;6.70;;;;;;;;;;5024023;28;20447;-79
2022/04/14 12:31:21;;;;;;;6.50;5.90;;;;;;;;;;5022311;28;20412;-79
2022/04/14 12:33:58;;;;;;;7.10;6.40;;;;;;;;;;5023851;28;20414;-78
2022/04/14 12:36:32;;;;;;;7.55;6.40;;;;;;;;;;5023749;28;20453;-79
2022/04/14 12:39:00;;;;;;;10.27;7.32;;;;;;;;;;5022380;28;20416;-79
2022/04/14 12:41:33;;;;;;;7.35;6.65;;;;;;;;;;5022338;28;20832;-79
2022/04/14 12:43:59;;;;;;;8.63;7.10;;;;;;;;;;5022917;28;21269;-79
2022/04/14 12:46:26;;;;;;;7.85;7.05;;;;;;;;;;5021740;28;20497;-79
2022/04/14 12:48:59;;;;;;;8.32;7.53;;;;;;;;;;5023351;28;20417;-79
2022/04/14 12:51:27;;;;;;;8.70;7.80;;;;;;;;;;5019252;28;20418;-79
2022/04/14 12:53:54;;;;;;;9.70;8.80;;;;;;;;;;5002919;28;20420;-79
2022/04/14 12:56:21;;;;;;;10.20;9.20;;;;;;;;;;5001821;28;20436;-78
2022/04/14 12:59:02;;;;;;;10.43;9.32;;;;;;;;;;5001340;28;20444;-79
2022/04/14 13:01:44;;;;;;;11.65;10.43;;;;;;;;;;5003252;28;20971;-78
2022/04/14 13:04:10;;;;;;;11.18;9.98;;;;;;;;;;5004004;28;20489;-79
2022/04/14 13:06:37;;;;;;;10.60;9.60;;;;;;;;;;5000443;28;20472;-79
2022/04/14 13:09:13;;;;;;;10.15;9.02;;;;;;;;;;5002067;28;20428;-79
2022/04/14 13:11:41;;;;;;;9.32;8.23;;;;;;;;;;5003107;28;20473;-78
2022/04/14 13:14:17;;;;;;;10.70;9.43;;;;;;;;;;5003171;28;20501;-79
2022/04/14 13:16:44;;;;;;;10.57;9.47;;;;;;;;;;5002443;28;20550;-79
2022/04/14 13:19:10;;;;;;;11.02;9.50;;;;;;;;;;5000940;28;20536;-79
2022/04/14 13:21:37;;;;;;;12.10;10.90;;;;;;;;;;5001019;28;20527;-79
2022/04/14 13:24:03;;;;;;;13.25;11.85;;;;;;;;;;5002368;28;20496;-78
2022/04/14 13:26:30;;;;;;;13.55;12.25;;;;;;;;;;5003407;28;20433;-79
2022/04/14 13:28:58;;;;;;;13.82;12.15;;;;;;;;;;5001290;28;20434;-79
2022/04/14 13:31:24;;;;;;;14.80;13.20;;;;;;;;;;5001222;28;20898;-79
2022/04/14 13:33:50;;;;;;;14.40;12.90;;;;;;;;;;5002256;28;20827;-79
2022/04/14 13:36:16;;;;;;;13.93;12.25;;;;;;;;;;5001078;28;20449;-79
2022/04/14 13:38:43;;;;;;;14.90;13.40;;;;;;;;;;5002140;28;20412;-79
2022/04/14 13:41:09;;;;;;;16.13;13.95;;;;;;;;;;5003251;28;20443;-78
2022/04/14 13:43:35;;;;;;;14.20;12.80;;;;;;;;;;4999923;28;20800;-78
2022/04/14 13:46:03;;;;;;;16.48;12.43;;;;;;;;;;5002196;28;20510;-79
2022/04/14 13:48:29;;;;;;;13.88;12.45;;;;;;;;;;4998743;28;20939;-78
2022/04/14 13:50:56;;;;;;;13.57;12.27;;;;;;;;;;5001634;28;20418;-79
2022/04/14 13:53:22;;;;;;;12.05;10.88;;;;;;;;;;5002140;28;20789;-79
2022/04/14 13:55:49;;;;;;;12.27;10.30;;;;;;;;;;5001825;28;20465;-79
2022/04/14 13:58:16;;;;;;;12.95;11.10;;;;;;;;;;5000415;28;20433;-79
2022/04/14 14:00:43;;;;;;;13.90;9.80;;;;;;;;;;5001886;28;20438;-79
2022/04/14 14:03:11;;;;;;;11.32;9.82;;;;;;;;;;5002315;28;20430;-78
2022/04/14 14:05:37;;;;;;;9.85;8.68;;;;;;;;;;5003021;28;20902;-78
2022/04/14 14:08:03;;;;;;;10.17;8.77;;;;;;;;;;5000577;28;20449;-75
2022/04/14 14:10:30;;;;;;;10.57;9.30;;;;;;;;;;5001322;28;20438;-78
2022/04/14 14:12:56;;;;;;;8.55;7.20;;;;;;;;;;5002675;28;20474;-79
2022/04/14 14:15:22;;;;;;;8.43;6.03;;;;;;;;;;5003664;28;20430;-79
2022/04/14 14:17:48;;;;;;;8.00;5.68;;;;;;;;;;4999416;28;20495;-78
2022/04/14 14:20:16;;;;;;;7.47;6.00;;;;;;;;;;5001244;28;20479;-79
2022/04/14 14:22:45;;;;;;;6.60;5.70;;;;;;;;;;4999926;28;20421;-78
2022/04/14 14:25:11;;;;;;;8.63;5.43;;;;;;;;;;5003277;28;20421;-78